createdAt,value
2022-10-07T00:35:33.866Z,99.90
2022-10-07T00:39:27.979Z,99.90
2022-10-07T00:42:58.989Z,99.90
2022-10-07T00:46:56.299Z,99.90
2022-10-07T01:20:07.530Z,99.90
2022-10-07T02:01:26.753Z,99.90
2022-10-07T02:05:27.152Z,99.90
2022-10-07T02:09:26.663Z,99.90
2022-10-07T02:45:43.564Z,99.90
2022-10-07T02:49:26.483Z,99.90
2022-10-07T02:53:00.512Z,99.90
2022-10-07T02:56:33.140Z,99.90
2022-10-07T03:00:10.051Z,99.90
2022-10-07T03:03:43.168Z,99.90
2022-10-07T03:07:14.582Z,99.90
2022-10-07T03:10:46.633Z,99.90
2022-10-07T03:14:17.720Z,99.90
2022-10-07T03:17:49.451Z,99.90
2022-10-07T03:21:31.652Z,99.90
2022-10-07T03:25:02.541Z,99.90
2022-10-07T03:28:33.923Z,99.90
2022-10-07T03:32:05.430Z,99.90
2022-10-07T03:35:37.191Z,99.90
2022-10-07T03:38:59.967Z,99.90
2022-10-07T03:42:31.150Z,99.90
2022-10-07T03:46:02.905Z,99.90
2022-10-07T03:49:33.827Z,99.90
2022-10-07T03:53:05.296Z,99.90
2022-10-07T03:56:36.405Z,99.90
2022-10-07T04:00:13.753Z,99.90
2022-10-07T04:03:45.610Z,99.90
2022-10-07T04:07:18.278Z,99.90
2022-10-07T04:10:51.027Z,99.90
2022-10-07T04:14:22.167Z,99.90
2022-10-07T04:18:05.452Z,99.90
2022-10-07T04:21:37.761Z,99.90
2022-10-07T04:25:08.924Z,99.90
2022-10-07T04:28:52.118Z,99.90
2022-10-07T04:32:23.095Z,99.90
2022-10-07T04:35:55.669Z,99.90
2022-10-07T04:39:42.739Z,99.90
2022-10-07T04:43:29.982Z,99.90
2022-10-07T04:47:00.972Z,99.90
2022-10-07T04:50:32.052Z,99.90
2022-10-07T04:54:08.001Z,99.90
2022-10-07T04:57:39.071Z,99.90
2022-10-07T05:01:16.272Z,99.90
2022-10-07T05:04:47.136Z,99.90
2022-10-07T05:08:18.739Z,99.90
2022-10-07T05:11:49.852Z,99.90
2022-10-07T05:15:21.451Z,99.90
2022-10-07T05:18:44.766Z,99.90
2022-10-07T05:22:16.087Z,99.90
2022-10-07T05:25:47.669Z,99.90
2022-10-07T05:29:18.811Z,99.90
2022-10-07T05:32:49.628Z,99.90
2022-10-07T05:36:32.911Z,99.90
2022-10-07T05:40:04.008Z,99.90
2022-10-07T05:43:37.576Z,99.90
2022-10-07T05:47:08.808Z,99.90
2022-10-07T05:50:40.350Z,99.90
2022-10-07T05:54:22.309Z,99.90
2022-10-07T05:57:44.498Z,99.90
2022-10-07T06:01:37.081Z,99.90
2022-10-07T06:05:07.905Z,99.90
2022-10-07T06:08:40.384Z,99.90
2022-10-07T06:12:11.453Z,99.90
2022-10-07T06:15:42.687Z,99.90
2022-10-07T06:19:14.804Z,99.90
2022-10-07T06:22:46.053Z,99.90
2022-10-07T06:26:39.825Z,99.20
2022-10-07T06:30:10.573Z,99.90
2022-10-07T06:33:41.482Z,99.80
2022-10-07T06:37:12.611Z,96.80
2022-10-07T06:40:43.852Z,98.80
2022-10-07T06:44:15.217Z,97.50
2022-10-07T06:47:46.348Z,98.30
2022-10-07T06:51:27.485Z,99.20
2022-10-07T06:54:59.046Z,98.50
2022-10-07T06:58:30.112Z,99.60
2022-10-07T07:02:00.903Z,98.10
2022-10-07T07:05:32.539Z,98.80
2022-10-07T07:08:54.984Z,95.40
2022-10-07T07:12:27.303Z,93.90
2022-10-07T07:16:10.005Z,96.70
2022-10-07T07:19:42.509Z,97.40
2022-10-07T07:23:24.625Z,97.50
2022-10-07T07:26:56.465Z,98.50
2022-10-07T07:30:27.642Z,97.90
2022-10-07T07:33:58.644Z,97.20
2022-10-07T07:37:29.943Z,97.50
2022-10-07T07:41:03.128Z,97.20
2022-10-07T07:44:37.108Z,96.70
2022-10-07T07:48:09.242Z,96.30
2022-10-07T07:51:43.182Z,96.30
2022-10-07T07:55:26.071Z,96.60
2022-10-07T07:58:57.699Z,96.30
2022-10-07T08:02:29.289Z,95.80
2022-10-07T08:06:01.905Z,94.90
2022-10-07T08:09:33.010Z,94.20
2022-10-07T08:13:04.066Z,93.00
2022-10-07T08:16:36.485Z,94.90
2022-10-07T08:20:07.535Z,93.60
2022-10-07T08:23:38.563Z,93.20
2022-10-07T08:27:11.156Z,92.90
2022-10-07T08:30:42.351Z,92.10
2022-10-07T08:34:16.301Z,92.40
2022-10-07T08:37:47.708Z,91.40
2022-10-07T08:42:19.318Z,92.60
2022-10-07T08:46:10.441Z,89.20
2022-10-07T08:49:48.539Z,91.50
2022-10-07T09:09:55.841Z,73.80
2022-10-07T09:13:56.845Z,81.80
2022-10-07T09:17:49.109Z,81.40
2022-10-07T09:21:23.941Z,84.00
2022-10-07T09:40:52.463Z,73.40
2022-10-07T09:44:51.979Z,75.20
2022-10-07T09:48:58.953Z,71.20
2022-10-07T10:09:29.315Z,62.50
2022-10-07T10:13:04.753Z,49.30
2022-10-07T10:16:56.494Z,51.70
2022-10-07T10:21:02.524Z,79.00
2022-10-07T10:24:43.896Z,62.60
2022-10-07T10:28:19.653Z,91.00
2022-10-07T11:05:43.658Z,99.90
2022-10-07T11:09:15.663Z,99.90
2022-10-07T11:13:07.274Z,99.90
2022-10-07T11:29:00.653Z,99.90
2022-10-07T11:33:07.576Z,99.90
2022-10-07T11:37:02.322Z,86.90
2022-10-07T11:40:34.057Z,77.60
2022-10-07T11:44:23.205Z,99.90
2022-10-07T11:48:09.955Z,93.80
2022-10-07T11:52:19.355Z,82.00
2022-10-07T12:27:55.063Z,73.00
2022-10-07T12:53:42.099Z,70.50
2022-10-07T12:57:20.450Z,79.00
2022-10-07T13:18:11.045Z,75.20
2022-10-07T14:00:06.334Z,71.40
2022-10-07T14:04:00.455Z,79.90
2022-10-07T14:08:01.892Z,80.50
2022-10-07T14:11:47.667Z,78.30
2022-10-07T14:15:54.721Z,81.20
2022-10-07T14:19:41.565Z,82.10
2022-10-07T14:23:51.291Z,81.80
2022-10-07T15:24:31.978Z,92.30
2022-10-07T15:28:03.437Z,92.50
2022-10-07T15:31:46.174Z,92.70
2022-10-07T15:35:16.942Z,92.90
2022-10-07T15:38:48.325Z,93.10
2022-10-07T15:42:37.071Z,93.30
2022-10-07T15:46:13.791Z,93.80
2022-10-07T15:49:44.974Z,94.10
2022-10-07T15:53:15.474Z,94.10
2022-10-07T15:56:46.551Z,94.00
2022-10-07T16:00:16.989Z,94.30
2022-10-07T16:03:59.243Z,94.70
2022-10-07T16:07:30.241Z,94.90
2022-10-07T16:11:03.921Z,94.90
2022-10-07T16:14:37.461Z,95.00
2022-10-07T16:18:09.589Z,94.90
2022-10-07T16:21:53.643Z,95.00
2022-10-07T16:25:24.705Z,95.20
2022-10-07T16:29:08.370Z,95.40
2022-10-07T16:32:40.113Z,95.50
2022-10-07T16:36:19.472Z,95.90
2022-10-07T16:39:50.679Z,96.00
2022-10-07T16:43:22.329Z,96.20
2022-10-07T16:47:25.264Z,95.80
2022-10-07T16:50:57.238Z,98.10
2022-10-07T16:54:42.062Z,96.50
2022-10-07T16:58:14.746Z,97.00
2022-10-07T17:01:47.900Z,96.40
2022-10-07T17:05:18.834Z,96.90
2022-10-07T17:08:50.798Z,96.80
2022-10-07T17:12:22.635Z,97.30
2022-10-07T17:15:57.781Z,97.30
2022-10-07T17:19:31.118Z,97.00
2022-10-07T17:23:02.475Z,97.00
2022-10-07T17:26:34.908Z,97.50
2022-10-07T17:30:06.765Z,97.10
2022-10-07T17:33:39.034Z,97.10
2022-10-07T17:37:10.643Z,97.30
2022-10-07T17:40:44.974Z,97.30
2022-10-07T17:44:17.643Z,96.80
2022-10-07T17:47:48.795Z,96.90
2022-10-07T17:51:21.137Z,97.20
2022-10-07T17:54:43.274Z,97.20
2022-10-07T17:58:14.166Z,99.90
2022-10-07T18:01:48.544Z,98.60
2022-10-07T18:05:19.667Z,98.50
2022-10-07T18:08:51.018Z,98.10
2022-10-07T18:12:22.511Z,98.70
2022-10-07T18:15:53.575Z,97.80
2022-10-07T18:19:26.202Z,97.40
2022-10-07T18:22:57.665Z,98.70
2022-10-07T18:26:40.425Z,99.10
2022-10-07T18:30:12.447Z,98.70
2022-10-07T18:33:34.403Z,98.60
2022-10-07T18:37:05.478Z,99.90
2022-10-07T18:40:36.732Z,99.80
2022-10-07T18:44:08.721Z,99.50
2022-10-07T18:47:39.788Z,98.60
2022-10-07T18:51:17.408Z,98.90
2022-10-07T18:54:48.460Z,98.30
2022-10-07T18:58:19.593Z,99.20
2022-10-07T19:02:01.263Z,98.90
2022-10-07T19:05:33.933Z,99.90
2022-10-07T19:09:06.691Z,99.90
2022-10-07T19:12:37.808Z,99.10
2022-10-07T19:16:19.587Z,98.60
2022-10-07T19:19:43.470Z,98.70
2022-10-07T19:23:14.571Z,99.90
2022-10-07T19:27:01.679Z,99.90
2022-10-07T19:30:33.993Z,99.00
2022-10-07T19:37:52.244Z,99.90
2022-10-07T19:41:27.577Z,99.70
2022-10-07T19:44:58.875Z,99.90
2022-10-07T19:48:29.891Z,99.90
2022-10-07T19:52:01.922Z,99.30
2022-10-07T19:55:34.987Z,99.10
2022-10-07T19:59:16.512Z,99.00
2022-10-07T20:02:48.210Z,98.90
2022-10-07T20:06:31.432Z,99.70
2022-10-07T20:10:02.164Z,99.90
2022-10-07T20:21:31.029Z,99.90
2022-10-07T20:25:17.515Z,99.90
2022-10-07T20:28:50.964Z,99.90
2022-10-07T20:32:46.059Z,99.90
2022-10-07T20:36:30.102Z,99.90
2022-10-07T20:40:01.176Z,99.90
2022-10-07T20:43:32.190Z,99.40
2022-10-07T20:47:27.048Z,99.40
2022-10-07T20:51:13.150Z,99.90
2022-10-07T20:58:58.727Z,99.60
